sensor_id;sensor_type;location;lat;lon;timestamp;temperature;humidity
46335;DHT22;32051;48.882;9.210;2023-03-15T00:00:40;2.20;99.90
46335;DHT22;32051;48.882;9.210;2023-03-15T00:03:07;2.20;99.90
46335;DHT22;32051;48.882;9.210;2023-03-15T00:05:33;2.20;99.90
46335;DHT22;32051;48.882;9.210;2023-03-15T00:07:59;2.20;99.90
46335;DHT22;32051;48.882;9.210;2023-03-15T00:10:27;2.20;99.90
46335;DHT22;32051;48.882;9.210;2023-03-15T00:12:52;2.30;99.90
46335;DHT22;32051;48.882;9.210;2023-03-15T00:15:20;2.30;99.90
46335;DHT22;32051;48.882;9.210;2023-03-15T00:17:45;2.30;99.90
46335;DHT22;32051;48.882;9.210;2023-03-15T00:20:12;2.30;99.90
46335;DHT22;32051;48.882;9.210;2023-03-15T00:22:40;2.40;99.90
46335;DHT22;32051;48.882;9.210;2023-03-15T00:25:06;2.30;99.90
46335;DHT22;32051;48.882;9.210;2023-03-15T00:27:32;2.30;99.90
46335;DHT22;32051;48.882;9.210;2023-03-15T00:29:58;2.30;99.90
46335;DHT22;32051;48.882;9.210;2023-03-15T00:32:23;2.30;99.90
46335;DHT22;32051;48.882;9.210;2023-03-15T00:34:49;2.30;99.90
46335;DHT22;32051;48.882;9.210;2023-03-15T00:37:19;2.20;99.90
46335;DHT22;32051;48.882;9.210;2023-03-15T00:39:46;2.30;99.90
46335;DHT22;32051;48.882;9.210;2023-03-15T00:42:13;2.20;99.90
46335;DHT22;32051;48.882;9.210;2023-03-15T00:44:42;2.20;99.90
46335;DHT22;32051;48.882;9.210;2023-03-15T00:47:13;2.20;99.90
46335;DHT22;32051;48.882;9.210;2023-03-15T00:49:39;2.20;99.90
46335;DHT22;32051;48.882;9.210;2023-03-15T00:52:06;2.20;99.90
46335;DHT22;32051;48.882;9.210;2023-03-15T00:54:32;2.20;99.90
46335;DHT22;32051;48.882;9.210;2023-03-15T00:56:59;2.20;99.90
46335;DHT22;32051;48.882;9.210;2023-03-15T00:59:27;2.20;99.90
46335;DHT22;32051;48.882;9.210;2023-03-15T01:01:54;2.20;99.90
46335;DHT22;32051;48.882;9.210;2023-03-15T01:04:21;2.20;99.90
46335;DHT22;32051;48.882;9.210;2023-03-15T01:06:47;2.20;99.90
46335;DHT22;32051;48.882;9.210;2023-03-15T01:09:14;2.30;99.90
46335;DHT22;32051;48.882;9.210;2023-03-15T01:11:39;2.20;99.90
46335;DHT22;32051;48.882;9.210;2023-03-15T01:14:05;2.30;99.90
46335;DHT22;32051;48.882;9.210;2023-03-15T01:16:33;2.20;99.90
46335;DHT22;32051;48.882;9.210;2023-03-15T01:18:59;2.10;99.90
46335;DHT22;32051;48.882;9.210;2023-03-15T01:21:24;2.20;99.90
46335;DHT22;32051;48.882;9.210;2023-03-15T01:23:51;2.10;99.90
46335;DHT22;32051;48.882;9.210;2023-03-15T01:26:20;2.10;99.90
46335;DHT22;32051;48.882;9.210;2023-03-15T01:28:46;2.10;99.90
46335;DHT22;32051;48.882;9.210;2023-03-15T01:31:16;2.00;99.90
46335;DHT22;32051;48.882;9.210;2023-03-15T01:33:43;2.00;99.90
46335;DHT22;32051;48.882;9.210;2023-03-15T01:36:10;2.00;99.90
46335;DHT22;32051;48.882;9.210;2023-03-15T01:38:36;2.00;99.90
46335;DHT22;32051;48.882;9.210;2023-03-15T01:41:02;1.90;99.90
46335;DHT22;32051;48.882;9.210;2023-03-15T01:43:30;1.90;99.90
46335;DHT22;32051;48.882;9.210;2023-03-15T01:46:04;1.90;99.90
46335;DHT22;32051;48.882;9.210;2023-03-15T01:51:12;1.90;99.90
46335;DHT22;32051;48.882;9.210;2023-03-15T01:53:42;1.80;99.90
46335;DHT22;32051;48.882;9.210;2023-03-15T01:56:09;1.80;99.90
46335;DHT22;32051;48.882;9.210;2023-03-15T01:58:37;1.80;99.90
46335;DHT22;32051;48.882;9.210;2023-03-15T02:01:05;1.80;99.90
46335;DHT22;32051;48.882;9.210;2023-03-15T02:03:38;1.80;99.90
46335;DHT22;32051;48.882;9.210;2023-03-15T02:06:18;1.80;99.90
46335;DHT22;32051;48.882;9.210;2023-03-15T02:08:55;1.70;99.90
46335;DHT22;32051;48.882;9.210;2023-03-15T02:11:24;1.70;99.90
46335;DHT22;32051;48.882;9.210;2023-03-15T02:13:52;1.70;99.90
46335;DHT22;32051;48.882;9.210;2023-03-15T02:16:20;1.70;99.90
46335;DHT22;32051;48.882;9.210;2023-03-15T02:18:52;1.60;99.90
46335;DHT22;32051;48.882;9.210;2023-03-15T02:21:38;1.60;99.90
46335;DHT22;32051;48.882;9.210;2023-03-15T02:26:47;1.60;99.90
46335;DHT22;32051;48.882;9.210;2023-03-15T02:29:14;1.60;99.90
46335;DHT22;32051;48.882;9.210;2023-03-15T02:31:40;1.60;99.90
46335;DHT22;32051;48.882;9.210;2023-03-15T02:34:07;1.60;99.90
46335;DHT22;32051;48.882;9.210;2023-03-15T02:36:34;1.50;99.90
46335;DHT22;32051;48.882;9.210;2023-03-15T02:39:00;1.50;99.90
46335;DHT22;32051;48.882;9.210;2023-03-15T02:41:35;1.50;99.90
46335;DHT22;32051;48.882;9.210;2023-03-15T02:44:09;1.50;99.90
46335;DHT22;32051;48.882;9.210;2023-03-15T02:46:36;1.50;99.90
46335;DHT22;32051;48.882;9.210;2023-03-15T02:49:03;1.50;99.90
46335;DHT22;32051;48.882;9.210;2023-03-15T02:51:32;1.50;99.90
46335;DHT22;32051;48.882;9.210;2023-03-15T02:53:58;1.50;99.90
46335;DHT22;32051;48.882;9.210;2023-03-15T02:56:24;1.40;99.90
46335;DHT22;32051;48.882;9.210;2023-03-15T02:58:50;1.50;99.90
46335;DHT22;32051;48.882;9.210;2023-03-15T03:01:17;1.50;99.90
46335;DHT22;32051;48.882;9.210;2023-03-15T03:03:44;1.50;99.90
46335;DHT22;32051;48.882;9.210;2023-03-15T03:06:13;1.40;99.90
46335;DHT22;32051;48.882;9.210;2023-03-15T03:08:40;1.40;99.90
46335;DHT22;32051;48.882;9.210;2023-03-15T03:11:07;1.40;99.90
46335;DHT22;32051;48.882;9.210;2023-03-15T03:13:34;1.40;99.90
46335;DHT22;32051;48.882;9.210;2023-03-15T03:16:02;1.40;99.90
46335;DHT22;32051;48.882;9.210;2023-03-15T03:18:30;1.40;99.90
46335;DHT22;32051;48.882;9.210;2023-03-15T03:21:02;1.40;99.90
46335;DHT22;32051;48.882;9.210;2023-03-15T03:23:29;1.40;99.90
46335;DHT22;32051;48.882;9.210;2023-03-15T03:25:57;1.40;99.90
46335;DHT22;32051;48.882;9.210;2023-03-15T03:28:25;1.40;99.90
46335;DHT22;32051;48.882;9.210;2023-03-15T03:30:52;1.40;99.90
46335;DHT22;32051;48.882;9.210;2023-03-15T03:33:18;1.40;99.90
46335;DHT22;32051;48.882;9.210;2023-03-15T03:35:46;1.40;99.90
46335;DHT22;32051;48.882;9.210;2023-03-15T03:38:12;1.40;99.90
46335;DHT22;32051;48.882;9.210;2023-03-15T03:40:41;1.40;99.90
46335;DHT22;32051;48.882;9.210;2023-03-15T03:43:07;1.40;99.90
46335;DHT22;32051;48.882;9.210;2023-03-15T03:45:34;1.40;99.90
46335;DHT22;32051;48.882;9.210;2023-03-15T03:48:00;1.40;99.90
46335;DHT22;32051;48.882;9.210;2023-03-15T03:50:27;1.40;99.90
46335;DHT22;32051;48.882;9.210;2023-03-15T03:52:53;1.30;99.90
46335;DHT22;32051;48.882;9.210;2023-03-15T03:55:25;1.20;99.90
46335;DHT22;32051;48.882;9.210;2023-03-15T03:57:52;1.20;99.90
46335;DHT22;32051;48.882;9.210;2023-03-15T04:00:35;1.10;99.90
46335;DHT22;32051;48.882;9.210;2023-03-15T04:03:01;1.10;99.90
46335;DHT22;32051;48.882;9.210;2023-03-15T04:05:28;1.00;99.90
46335;DHT22;32051;48.882;9.210;2023-03-15T04:07:54;1.00;99.90
46335;DHT22;32051;48.882;9.210;2023-03-15T04:10:20;0.90;99.90
46335;DHT22;32051;48.882;9.210;2023-03-15T04:12:53;0.90;99.90
46335;DHT22;32051;48.882;9.210;2023-03-15T04:15:19;0.90;99.90
46335;DHT22;32051;48.882;9.210;2023-03-15T04:17:51;0.90;99.90
46335;DHT22;32051;48.882;9.210;2023-03-15T04:20:26;0.90;99.90
46335;DHT22;32051;48.882;9.210;2023-03-15T04:22:52;0.90;99.90
46335;DHT22;32051;48.882;9.210;2023-03-15T04:25:41;0.90;99.90
46335;DHT22;32051;48.882;9.210;2023-03-15T04:28:27;0.90;99.90
46335;DHT22;32051;48.882;9.210;2023-03-15T04:31:28;0.90;99.90
46335;DHT22;32051;48.882;9.210;2023-03-15T04:34:30;0.90;99.90
46335;DHT22;32051;48.882;9.210;2023-03-15T04:36:56;0.80;99.90
46335;DHT22;32051;48.882;9.210;2023-03-15T04:39:31;0.80;99.90
46335;DHT22;32051;48.882;9.210;2023-03-15T04:42:09;0.80;99.90
46335;DHT22;32051;48.882;9.210;2023-03-15T04:44:46;0.80;99.90
46335;DHT22;32051;48.882;9.210;2023-03-15T04:47:37;0.80;99.90
46335;DHT22;32051;48.882;9.210;2023-03-15T06:19:27;1.20;99.90
46335;DHT22;32051;48.882;9.210;2023-03-15T06:21:53;1.30;99.90
46335;DHT22;32051;48.882;9.210;2023-03-15T06:36:52;1.80;99.90
46335;DHT22;32051;48.882;9.210;2023-03-15T06:39:18;1.90;99.90
46335;DHT22;32051;48.882;9.210;2023-03-15T06:41:44;1.80;99.90
46335;DHT22;32051;48.882;9.210;2023-03-15T06:44:17;2.00;99.90
46335;DHT22;32051;48.882;9.210;2023-03-15T06:46:44;2.00;99.90
46335;DHT22;32051;48.882;9.210;2023-03-15T06:49:10;2.10;99.90
46335;DHT22;32051;48.882;9.210;2023-03-15T06:51:36;2.10;99.90
46335;DHT22;32051;48.882;9.210;2023-03-15T06:54:02;2.20;99.90
46335;DHT22;32051;48.882;9.210;2023-03-15T06:56:31;2.30;99.90
46335;DHT22;32051;48.882;9.210;2023-03-15T06:59:01;2.40;99.90
46335;DHT22;32051;48.882;9.210;2023-03-15T07:01:27;2.50;99.90
46335;DHT22;32051;48.882;9.210;2023-03-15T07:03:53;2.60;99.90
46335;DHT22;32051;48.882;9.210;2023-03-15T07:06:19;2.80;99.90
46335;DHT22;32051;48.882;9.210;2023-03-15T07:08:44;2.80;99.90
46335;DHT22;32051;48.882;9.210;2023-03-15T07:11:10;3.00;99.90
46335;DHT22;32051;48.882;9.210;2023-03-15T07:13:35;3.20;99.90
46335;DHT22;32051;48.882;9.210;2023-03-15T07:16:01;3.50;99.90
46335;DHT22;32051;48.882;9.210;2023-03-15T07:18:27;3.70;99.90
46335;DHT22;32051;48.882;9.210;2023-03-15T07:21:00;3.90;99.90
46335;DHT22;32051;48.882;9.210;2023-03-15T07:23:26;4.00;99.90
46335;DHT22;32051;48.882;9.210;2023-03-15T07:25:53;4.10;99.90
46335;DHT22;32051;48.882;9.210;2023-03-15T07:28:20;4.10;99.90
46335;DHT22;32051;48.882;9.210;2023-03-15T07:30:56;4.10;99.90
46335;DHT22;32051;48.882;9.210;2023-03-15T07:33:23;4.20;99.90
46335;DHT22;32051;48.882;9.210;2023-03-15T07:35:50;4.20;99.90
46335;DHT22;32051;48.882;9.210;2023-03-15T07:38:16;4.30;99.90
46335;DHT22;32051;48.882;9.210;2023-03-15T07:40:42;4.40;99.90
46335;DHT22;32051;48.882;9.210;2023-03-15T07:43:08;4.50;99.90
46335;DHT22;32051;48.882;9.210;2023-03-15T07:45:33;4.60;99.90
46335;DHT22;32051;48.882;9.210;2023-03-15T07:47:59;4.70;99.90
46335;DHT22;32051;48.882;9.210;2023-03-15T07:50:25;4.80;99.90
46335;DHT22;32051;48.882;9.210;2023-03-15T07:52:51;4.90;99.90
46335;DHT22;32051;48.882;9.210;2023-03-15T07:55:17;5.00;99.90
46335;DHT22;32051;48.882;9.210;2023-03-15T07:57:43;5.00;99.90
46335;DHT22;32051;48.882;9.210;2023-03-15T08:00:09;5.10;99.90
46335;DHT22;32051;48.882;9.210;2023-03-15T08:02:38;5.10;99.90
46335;DHT22;32051;48.882;9.210;2023-03-15T08:05:04;5.10;99.90
46335;DHT22;32051;48.882;9.210;2023-03-15T08:07:30;5.10;99.90
46335;DHT22;32051;48.882;9.210;2023-03-15T08:09:55;5.20;99.90
46335;DHT22;32051;48.882;9.210;2023-03-15T08:12:26;5.30;99.90
46335;DHT22;32051;48.882;9.210;2023-03-15T08:14:51;5.40;99.90
46335;DHT22;32051;48.882;9.210;2023-03-15T08:17:17;5.50;99.90
46335;DHT22;32051;48.882;9.210;2023-03-15T08:19:43;5.60;99.90
46335;DHT22;32051;48.882;9.210;2023-03-15T08:22:09;5.70;99.90
46335;DHT22;32051;48.882;9.210;2023-03-15T08:24:35;5.70;99.90
46335;DHT22;32051;48.882;9.210;2023-03-15T08:27:01;5.70;99.90
46335;DHT22;32051;48.882;9.210;2023-03-15T08:29:27;5.80;99.90
46335;DHT22;32051;48.882;9.210;2023-03-15T08:31:53;5.80;99.90
46335;DHT22;32051;48.882;9.210;2023-03-15T08:34:19;5.90;99.90
46335;DHT22;32051;48.882;9.210;2023-03-15T08:36:46;6.00;99.90
46335;DHT22;32051;48.882;9.210;2023-03-15T08:39:12;6.10;99.90
46335;DHT22;32051;48.882;9.210;2023-03-15T08:41:38;6.10;99.90
46335;DHT22;32051;48.882;9.210;2023-03-15T08:44:05;6.20;99.90
46335;DHT22;32051;48.882;9.210;2023-03-15T08:46:32;6.20;99.90
46335;DHT22;32051;48.882;9.210;2023-03-15T08:48:58;6.20;99.90
46335;DHT22;32051;48.882;9.210;2023-03-15T08:51:24;6.40;99.90
46335;DHT22;32051;48.882;9.210;2023-03-15T08:53:51;6.50;99.90
46335;DHT22;32051;48.882;9.210;2023-03-15T08:56:17;6.60;99.90
46335;DHT22;32051;48.882;9.210;2023-03-15T08:58:43;6.70;99.90
46335;DHT22;32051;48.882;9.210;2023-03-15T09:01:13;6.80;99.90
46335;DHT22;32051;48.882;9.210;2023-03-15T09:03:39;6.70;99.90
46335;DHT22;32051;48.882;9.210;2023-03-15T09:06:07;6.70;99.90
46335;DHT22;32051;48.882;9.210;2023-03-15T09:08:33;6.70;99.90
46335;DHT22;32051;48.882;9.210;2023-03-15T09:10:59;6.60;99.90
46335;DHT22;32051;48.882;9.210;2023-03-15T09:13:27;6.60;99.90
46335;DHT22;32051;48.882;9.210;2023-03-15T09:15:53;6.60;99.90
46335;DHT22;32051;48.882;9.210;2023-03-15T09:18:20;6.60;99.90
46335;DHT22;32051;48.882;9.210;2023-03-15T09:20:46;6.60;99.90
46335;DHT22;32051;48.882;9.210;2023-03-15T09:23:12;6.60;99.90
46335;DHT22;32051;48.882;9.210;2023-03-15T09:25:38;6.60;99.90
46335;DHT22;32051;48.882;9.210;2023-03-15T09:28:06;6.60;99.90
46335;DHT22;32051;48.882;9.210;2023-03-15T09:30:32;6.60;99.90
46335;DHT22;32051;48.882;9.210;2023-03-15T09:32:58;6.60;99.90
46335;DHT22;32051;48.882;9.210;2023-03-15T09:35:24;6.50;99.90
46335;DHT22;32051;48.882;9.210;2023-03-15T09:37:50;6.50;99.90
46335;DHT22;32051;48.882;9.210;2023-03-15T09:40:32;6.60;99.90
46335;DHT22;32051;48.882;9.210;2023-03-15T09:48:34;6.60;99.90
46335;DHT22;32051;48.882;9.210;2023-03-15T09:51:17;6.70;99.80
46335;DHT22;32051;48.882;9.210;2023-03-15T09:53:53;6.70;99.70
46335;DHT22;32051;48.882;9.210;2023-03-15T09:56:33;6.70;99.90
46335;DHT22;32051;48.882;9.210;2023-03-15T09:59:01;6.80;99.90
46335;DHT22;32051;48.882;9.210;2023-03-15T10:01:34;6.80;99.30
46335;DHT22;32051;48.882;9.210;2023-03-15T10:04:24;6.80;98.70
46335;DHT22;32051;48.882;9.210;2023-03-15T10:06:57;6.70;99.90
46335;DHT22;32051;48.882;9.210;2023-03-15T10:09:27;6.80;99.20
46335;DHT22;32051;48.882;9.210;2023-03-15T10:12:12;7.00;99.50
46335;DHT22;32051;48.882;9.210;2023-03-15T10:17:43;7.50;98.40
46335;DHT22;32051;48.882;9.210;2023-03-15T10:20:16;7.50;97.70
46335;DHT22;32051;48.882;9.210;2023-03-15T10:22:51;7.60;96.80
46335;DHT22;32051;48.882;9.210;2023-03-15T10:25:31;7.60;97.10
46335;DHT22;32051;48.882;9.210;2023-03-15T10:28:08;7.50;97.20
46335;DHT22;32051;48.882;9.210;2023-03-15T10:30:37;7.40;97.00
46335;DHT22;32051;48.882;9.210;2023-03-15T10:33:30;7.50;97.50
46335;DHT22;32051;48.882;9.210;2023-03-15T10:35:57;7.60;98.10
46335;DHT22;32051;48.882;9.210;2023-03-15T10:38:25;7.50;97.00
46335;DHT22;32051;48.882;9.210;2023-03-15T10:40:56;7.70;96.80
46335;DHT22;32051;48.882;9.210;2023-03-15T10:48:29;8.40;96.50
46335;DHT22;32051;48.882;9.210;2023-03-15T10:50:56;8.50;96.70
46335;DHT22;32051;48.882;9.210;2023-03-15T10:53:22;8.60;95.80
46335;DHT22;32051;48.882;9.210;2023-03-15T10:56:04;8.70;95.90
46335;DHT22;32051;48.882;9.210;2023-03-15T10:58:45;8.80;95.90
46335;DHT22;32051;48.882;9.210;2023-03-15T11:01:32;8.50;95.30
46335;DHT22;32051;48.882;9.210;2023-03-15T11:04:41;8.30;95.90
46335;DHT22;32051;48.882;9.210;2023-03-15T11:07:02;8.20;95.70
46335;DHT22;32051;48.882;9.210;2023-03-15T11:09:59;7.90;96.80
46335;DHT22;32051;48.882;9.210;2023-03-15T11:12:28;7.80;97.90
46335;DHT22;32051;48.882;9.210;2023-03-15T11:15:10;7.50;97.90
46335;DHT22;32051;48.882;9.210;2023-03-15T11:17:47;7.40;97.30
46335;DHT22;32051;48.882;9.210;2023-03-15T11:20:36;7.40;95.90
46335;DHT22;32051;48.882;9.210;2023-03-15T11:23:16;7.20;95.90
46335;DHT22;32051;48.882;9.210;2023-03-15T11:25:43;7.20;95.50
46335;DHT22;32051;48.882;9.210;2023-03-15T11:28:25;7.10;95.30
46335;DHT22;32051;48.882;9.210;2023-03-15T11:30:51;7.00;95.40
46335;DHT22;32051;48.882;9.210;2023-03-15T11:36:01;6.80;95.60
46335;DHT22;32051;48.882;9.210;2023-03-15T11:38:32;6.80;96.10
46335;DHT22;32051;48.882;9.210;2023-03-15T11:41:04;6.80;96.70
46335;DHT22;32051;48.882;9.210;2023-03-15T11:46:20;6.70;96.30
46335;DHT22;32051;48.882;9.210;2023-03-15T11:51:34;6.70;97.20
46335;DHT22;32051;48.882;9.210;2023-03-15T11:54:13;6.60;97.40
46335;DHT22;32051;48.882;9.210;2023-03-15T11:59:11;6.60;98.90
46335;DHT22;32051;48.882;9.210;2023-03-15T12:01:45;6.50;98.80
46335;DHT22;32051;48.882;9.210;2023-03-15T12:17:44;6.50;99.90
46335;DHT22;32051;48.882;9.210;2023-03-15T12:20:38;6.50;99.90
46335;DHT22;32051;48.882;9.210;2023-03-15T12:28:18;6.50;99.90
46335;DHT22;32051;48.882;9.210;2023-03-15T12:30:44;6.50;99.90
46335;DHT22;32051;48.882;9.210;2023-03-15T12:33:18;6.50;99.90
46335;DHT22;32051;48.882;9.210;2023-03-15T12:35:47;6.40;99.90
46335;DHT22;32051;48.882;9.210;2023-03-15T12:38:21;6.30;99.90
46335;DHT22;32051;48.882;9.210;2023-03-15T12:40:57;6.00;99.90
46335;DHT22;32051;48.882;9.210;2023-03-15T12:43:44;5.80;99.90
46335;DHT22;32051;48.882;9.210;2023-03-15T12:49:11;5.60;99.90
46335;DHT22;32051;48.882;9.210;2023-03-15T12:55:27;5.50;99.90
46335;DHT22;32051;48.882;9.210;2023-03-15T12:57:48;5.40;99.90
46335;DHT22;32051;48.882;9.210;2023-03-15T13:00:16;5.40;99.90
46335;DHT22;32051;48.882;9.210;2023-03-15T13:02:57;5.30;99.90
46335;DHT22;32051;48.882;9.210;2023-03-15T13:05:29;5.10;99.90
46335;DHT22;32051;48.882;9.210;2023-03-15T13:13:16;4.80;99.90
46335;DHT22;32051;48.882;9.210;2023-03-15T13:19:30;4.90;99.90
46335;DHT22;32051;48.882;9.210;2023-03-15T13:29:44;5.60;99.90
46335;DHT22;32051;48.882;9.210;2023-03-15T13:34:39;6.20;99.90
46335;DHT22;32051;48.882;9.210;2023-03-15T13:37:14;6.80;99.90
46335;DHT22;32051;48.882;9.210;2023-03-15T13:39:52;6.90;99.90
46335;DHT22;32051;48.882;9.210;2023-03-15T13:42:20;7.00;99.90
46335;DHT22;32051;48.882;9.210;2023-03-15T13:45:10;7.00;99.90
46335;DHT22;32051;48.882;9.210;2023-03-15T13:47:39;7.20;99.90
46335;DHT22;32051;48.882;9.210;2023-03-15T13:50:06;7.30;99.90
46335;DHT22;32051;48.882;9.210;2023-03-15T13:52:32;7.00;99.90
46335;DHT22;32051;48.882;9.210;2023-03-15T13:54:58;6.80;99.90
46335;DHT22;32051;48.882;9.210;2023-03-15T13:57:25;6.60;99.90
46335;DHT22;32051;48.882;9.210;2023-03-15T13:59:56;6.20;99.90
46335;DHT22;32051;48.882;9.210;2023-03-15T14:02:24;6.20;99.90
46335;DHT22;32051;48.882;9.210;2023-03-15T14:05:04;6.20;99.90
46335;DHT22;32051;48.882;9.210;2023-03-15T14:12:45;6.50;99.90
46335;DHT22;32051;48.882;9.210;2023-03-15T14:15:17;6.60;99.90
46335;DHT22;32051;48.882;9.210;2023-03-15T14:17:51;6.70;99.90
46335;DHT22;32051;48.882;9.210;2023-03-15T14:20:17;6.70;99.90
46335;DHT22;32051;48.882;9.210;2023-03-15T14:22:43;6.90;99.90
46335;DHT22;32051;48.882;9.210;2023-03-15T14:25:21;6.80;99.90
46335;DHT22;32051;48.882;9.210;2023-03-15T14:27:47;6.90;99.90
46335;DHT22;32051;48.882;9.210;2023-03-15T14:30:24;6.90;99.90
46335;DHT22;32051;48.882;9.210;2023-03-15T14:32:55;6.90;99.90
46335;DHT22;32051;48.882;9.210;2023-03-15T14:35:27;6.70;99.90
46335;DHT22;32051;48.882;9.210;2023-03-15T14:38:02;6.50;99.90
46335;DHT22;32051;48.882;9.210;2023-03-15T14:43:03;5.80;99.90
46335;DHT22;32051;48.882;9.210;2023-03-15T14:45:30;5.50;99.90
46335;DHT22;32051;48.882;9.210;2023-03-15T14:48:03;5.30;99.90
46335;DHT22;32051;48.882;9.210;2023-03-15T14:50:34;5.10;99.90
46335;DHT22;32051;48.882;9.210;2023-03-15T14:53:01;4.80;99.90
46335;DHT22;32051;48.882;9.210;2023-03-15T14:55:29;4.80;99.90
46335;DHT22;32051;48.882;9.210;2023-03-15T14:57:57;4.60;99.90
46335;DHT22;32051;48.882;9.210;2023-03-15T15:00:23;4.40;99.90
46335;DHT22;32051;48.882;9.210;2023-03-15T15:02:54;4.50;99.90
46335;DHT22;32051;48.882;9.210;2023-03-15T15:05:27;4.40;99.90
46335;DHT22;32051;48.882;9.210;2023-03-15T15:08:14;4.30;99.90
46335;DHT22;32051;48.882;9.210;2023-03-15T15:10:43;4.40;99.90
46335;DHT22;32051;48.882;9.210;2023-03-15T15:13:27;4.40;99.90
46335;DHT22;32051;48.882;9.210;2023-03-15T15:15:54;4.50;99.90
46335;DHT22;32051;48.882;9.210;2023-03-15T15:18:21;4.50;99.90
46335;DHT22;32051;48.882;9.210;2023-03-15T15:48:06;4.30;99.90
46335;DHT22;32051;48.882;9.210;2023-03-15T16:33:18;4.60;99.90
46335;DHT22;32051;48.882;9.210;2023-03-15T16:53:07;4.50;99.90
46335;DHT22;32051;48.882;9.210;2023-03-15T18:19:21;3.60;99.90
46335;DHT22;32051;48.882;9.210;2023-03-15T18:21:47;3.60;99.90
